sensor_id;sensor_type;location;lat;lon;timestamp;P1;durP1;ratioP1;P2;durP2;ratioP2
18973;SDS011;9621;48.690;9.466;2023-06-10T00:00:25;8.60;;;7.60;;
18973;SDS011;9621;48.690;9.466;2023-06-10T00:02:52;9.52;;;7.53;;
18973;SDS011;9621;48.690;9.466;2023-06-10T00:05:18;11.32;;;7.63;;
18973;SDS011;9621;48.690;9.466;2023-06-10T00:07:47;9.82;;;7.30;;
18973;SDS011;9621;48.690;9.466;2023-06-10T00:10:15;10.30;;;7.30;;
18973;SDS011;9621;48.690;9.466;2023-06-10T00:12:42;7.57;;;6.50;;
18973;SDS011;9621;48.690;9.466;2023-06-10T00:15:09;8.15;;;6.72;;
18973;SDS011;9621;48.690;9.466;2023-06-10T00:17:36;7.88;;;7.00;;
18973;SDS011;9621;48.690;9.466;2023-06-10T00:20:04;10.05;;;8.13;;
18973;SDS011;9621;48.690;9.466;2023-06-10T00:22:34;9.00;;;6.97;;
18973;SDS011;9621;48.690;9.466;2023-06-10T00:25:02;8.35;;;7.45;;
18973;SDS011;9621;48.690;9.466;2023-06-10T00:27:30;11.20;;;8.20;;
18973;SDS011;9621;48.690;9.466;2023-06-10T00:30:00;10.70;;;9.52;;
18973;SDS011;9621;48.690;9.466;2023-06-10T00:32:29;14.73;;;10.65;;
18973;SDS011;9621;48.690;9.466;2023-06-10T00:34:57;15.07;;;10.57;;
18973;SDS011;9621;48.690;9.466;2023-06-10T00:37:24;14.50;;;10.55;;
18973;SDS011;9621;48.690;9.466;2023-06-10T00:39:51;12.40;;;10.15;;
18973;SDS011;9621;48.690;9.466;2023-06-10T00:42:20;16.23;;;10.45;;
18973;SDS011;9621;48.690;9.466;2023-06-10T00:44:49;12.23;;;10.20;;
18973;SDS011;9621;48.690;9.466;2023-06-10T00:47:16;11.63;;;9.43;;
18973;SDS011;9621;48.690;9.466;2023-06-10T00:49:43;14.25;;;10.45;;
18973;SDS011;9621;48.690;9.466;2023-06-10T00:52:11;14.90;;;10.82;;
18973;SDS011;9621;48.690;9.466;2023-06-10T00:54:38;14.07;;;9.82;;
18973;SDS011;9621;48.690;9.466;2023-06-10T00:57:05;14.50;;;11.00;;
18973;SDS011;9621;48.690;9.466;2023-06-10T00:59:34;10.80;;;9.30;;
18973;SDS011;9621;48.690;9.466;2023-06-10T01:02:01;13.18;;;9.02;;
18973;SDS011;9621;48.690;9.466;2023-06-10T01:04:29;11.30;;;9.05;;
18973;SDS011;9621;48.690;9.466;2023-06-10T01:06:59;10.40;;;8.40;;
18973;SDS011;9621;48.690;9.466;2023-06-10T01:09:37;11.95;;;8.75;;
18973;SDS011;9621;48.690;9.466;2023-06-10T01:12:10;11.32;;;9.02;;
18973;SDS011;9621;48.690;9.466;2023-06-10T01:14:44;12.25;;;9.70;;
18973;SDS011;9621;48.690;9.466;2023-06-10T01:17:11;10.85;;;9.23;;
18973;SDS011;9621;48.690;9.466;2023-06-10T01:19:41;12.77;;;9.95;;
18973;SDS011;9621;48.690;9.466;2023-06-10T01:22:10;13.20;;;9.02;;
18973;SDS011;9621;48.690;9.466;2023-06-10T01:24:41;11.15;;;9.38;;
18973;SDS011;9621;48.690;9.466;2023-06-10T01:27:09;12.93;;;9.18;;
18973;SDS011;9621;48.690;9.466;2023-06-10T01:29:41;10.93;;;8.90;;
18973;SDS011;9621;48.690;9.466;2023-06-10T01:32:13;11.90;;;9.25;;
18973;SDS011;9621;48.690;9.466;2023-06-10T01:34:44;12.13;;;9.25;;
18973;SDS011;9621;48.690;9.466;2023-06-10T01:37:15;11.90;;;9.20;;
18973;SDS011;9621;48.690;9.466;2023-06-10T01:39:44;12.20;;;9.20;;
18973;SDS011;9621;48.690;9.466;2023-06-10T01:42:12;10.38;;;8.40;;
18973;SDS011;9621;48.690;9.466;2023-06-10T01:44:40;12.15;;;9.35;;
18973;SDS011;9621;48.690;9.466;2023-06-10T01:47:08;11.38;;;7.93;;
18973;SDS011;9621;48.690;9.466;2023-06-10T01:49:35;9.57;;;8.43;;
18973;SDS011;9621;48.690;9.466;2023-06-10T01:52:02;10.23;;;8.90;;
18973;SDS011;9621;48.690;9.466;2023-06-10T01:54:31;10.82;;;8.63;;
18973;SDS011;9621;48.690;9.466;2023-06-10T01:56:59;11.25;;;8.70;;
18973;SDS011;9621;48.690;9.466;2023-06-10T01:59:27;9.38;;;7.82;;
18973;SDS011;9621;48.690;9.466;2023-06-10T02:01:54;8.85;;;7.95;;
18973;SDS011;9621;48.690;9.466;2023-06-10T02:04:21;10.95;;;7.68;;
18973;SDS011;9621;48.690;9.466;2023-06-10T02:06:48;11.35;;;7.90;;
18973;SDS011;9621;48.690;9.466;2023-06-10T02:09:15;10.70;;;8.52;;
18973;SDS011;9621;48.690;9.466;2023-06-10T02:11:44;11.23;;;7.68;;
18973;SDS011;9621;48.690;9.466;2023-06-10T02:14:11;9.20;;;7.60;;
18973;SDS011;9621;48.690;9.466;2023-06-10T02:16:38;9.63;;;8.13;;
18973;SDS011;9621;48.690;9.466;2023-06-10T02:19:05;8.93;;;7.80;;
18973;SDS011;9621;48.690;9.466;2023-06-10T02:21:32;10.68;;;7.68;;
18973;SDS011;9621;48.690;9.466;2023-06-10T02:24:00;9.63;;;8.07;;
18973;SDS011;9621;48.690;9.466;2023-06-10T02:26:28;9.73;;;7.15;;
18973;SDS011;9621;48.690;9.466;2023-06-10T02:28:56;8.02;;;7.18;;
18973;SDS011;9621;48.690;9.466;2023-06-10T02:31:23;10.65;;;7.97;;
18973;SDS011;9621;48.690;9.466;2023-06-10T02:33:50;10.63;;;7.85;;
18973;SDS011;9621;48.690;9.466;2023-06-10T02:36:17;9.50;;;7.78;;
18973;SDS011;9621;48.690;9.466;2023-06-10T02:38:46;11.68;;;7.28;;
18973;SDS011;9621;48.690;9.466;2023-06-10T02:41:13;13.27;;;7.68;;
18973;SDS011;9621;48.690;9.466;2023-06-10T02:43:40;8.45;;;7.57;;
18973;SDS011;9621;48.690;9.466;2023-06-10T02:46:08;12.25;;;8.10;;
18973;SDS011;9621;48.690;9.466;2023-06-10T02:48:40;7.15;;;6.28;;
18973;SDS011;9621;48.690;9.466;2023-06-10T02:51:08;11.98;;;8.18;;
18973;SDS011;9621;48.690;9.466;2023-06-10T02:53:35;8.63;;;7.72;;
18973;SDS011;9621;48.690;9.466;2023-06-10T02:56:02;9.60;;;7.95;;
18973;SDS011;9621;48.690;9.466;2023-06-10T02:58:29;9.60;;;6.88;;
18973;SDS011;9621;48.690;9.466;2023-06-10T03:00:57;9.35;;;7.55;;
18973;SDS011;9621;48.690;9.466;2023-06-10T03:03:25;8.77;;;7.40;;
18973;SDS011;9621;48.690;9.466;2023-06-10T03:05:52;8.77;;;7.38;;
18973;SDS011;9621;48.690;9.466;2023-06-10T03:08:19;10.20;;;7.78;;
18973;SDS011;9621;48.690;9.466;2023-06-10T03:10:46;10.50;;;7.82;;
18973;SDS011;9621;48.690;9.466;2023-06-10T03:13:13;11.57;;;7.47;;
18973;SDS011;9621;48.690;9.466;2023-06-10T03:15:40;8.05;;;6.72;;
18973;SDS011;9621;48.690;9.466;2023-06-10T03:18:07;7.68;;;6.75;;
18973;SDS011;9621;48.690;9.466;2023-06-10T03:20:36;12.18;;;7.25;;
18973;SDS011;9621;48.690;9.466;2023-06-10T03:23:04;11.85;;;7.70;;
18973;SDS011;9621;48.690;9.466;2023-06-10T03:25:32;9.50;;;7.20;;
18973;SDS011;9621;48.690;9.466;2023-06-10T03:27:59;8.50;;;6.60;;
18973;SDS011;9621;48.690;9.466;2023-06-10T03:30:26;9.65;;;7.68;;
18973;SDS011;9621;48.690;9.466;2023-06-10T03:32:53;8.68;;;6.55;;
18973;SDS011;9621;48.690;9.466;2023-06-10T03:35:20;9.73;;;7.55;;
18973;SDS011;9621;48.690;9.466;2023-06-10T03:37:48;9.27;;;7.07;;
18973;SDS011;9621;48.690;9.466;2023-06-10T03:40:15;8.88;;;7.13;;
18973;SDS011;9621;48.690;9.466;2023-06-10T03:42:42;10.10;;;7.20;;
18973;SDS011;9621;48.690;9.466;2023-06-10T03:45:10;9.55;;;7.13;;
18973;SDS011;9621;48.690;9.466;2023-06-10T03:47:37;8.65;;;6.72;;
18973;SDS011;9621;48.690;9.466;2023-06-10T03:50:06;8.05;;;6.85;;
18973;SDS011;9621;48.690;9.466;2023-06-10T03:52:34;9.70;;;7.72;;
18973;SDS011;9621;48.690;9.466;2023-06-10T03:55:03;7.65;;;6.82;;
18973;SDS011;9621;48.690;9.466;2023-06-10T03:57:31;9.90;;;6.90;;
18973;SDS011;9621;48.690;9.466;2023-06-10T03:59:58;8.50;;;6.82;;
18973;SDS011;9621;48.690;9.466;2023-06-10T04:02:25;8.70;;;7.40;;
18973;SDS011;9621;48.690;9.466;2023-06-10T04:04:52;9.57;;;7.40;;
18973;SDS011;9621;48.690;9.466;2023-06-10T04:07:19;9.43;;;7.28;;
18973;SDS011;9621;48.690;9.466;2023-06-10T04:09:46;11.63;;;7.20;;
18973;SDS011;9621;48.690;9.466;2023-06-10T04:12:14;7.00;;;6.30;;
18973;SDS011;9621;48.690;9.466;2023-06-10T04:14:41;9.07;;;7.03;;
18973;SDS011;9621;48.690;9.466;2023-06-10T04:17:08;8.60;;;6.90;;
18973;SDS011;9621;48.690;9.466;2023-06-10T04:19:36;9.15;;;6.47;;
18973;SDS011;9621;48.690;9.466;2023-06-10T04:22:03;8.18;;;6.50;;
18973;SDS011;9621;48.690;9.466;2023-06-10T04:24:31;9.07;;;7.18;;
18973;SDS011;9621;48.690;9.466;2023-06-10T04:26:57;7.97;;;6.93;;
18973;SDS011;9621;48.690;9.466;2023-06-10T04:29:26;12.10;;;7.07;;
18973;SDS011;9621;48.690;9.466;2023-06-10T04:31:54;9.20;;;6.18;;
18973;SDS011;9621;48.690;9.466;2023-06-10T04:34:21;8.80;;;6.38;;
18973;SDS011;9621;48.690;9.466;2023-06-10T04:36:48;6.72;;;6.13;;
18973;SDS011;9621;48.690;9.466;2023-06-10T04:39:16;6.90;;;6.10;;
18973;SDS011;9621;48.690;9.466;2023-06-10T04:41:43;10.18;;;6.07;;
18973;SDS011;9621;48.690;9.466;2023-06-10T04:44:10;11.52;;;6.32;;
18973;SDS011;9621;48.690;9.466;2023-06-10T04:46:38;7.30;;;5.97;;
18973;SDS011;9621;48.690;9.466;2023-06-10T04:49:06;8.48;;;6.18;;
18973;SDS011;9621;48.690;9.466;2023-06-10T04:51:33;7.80;;;6.18;;
18973;SDS011;9621;48.690;9.466;2023-06-10T04:54:00;10.15;;;6.15;;
18973;SDS011;9621;48.690;9.466;2023-06-10T04:56:28;7.38;;;6.05;;
18973;SDS011;9621;48.690;9.466;2023-06-10T04:58:55;7.05;;;6.20;;
18973;SDS011;9621;48.690;9.466;2023-06-10T05:01:22;6.80;;;6.10;;
18973;SDS011;9621;48.690;9.466;2023-06-10T05:03:51;9.45;;;5.65;;
18973;SDS011;9621;48.690;9.466;2023-06-10T05:06:18;6.70;;;5.80;;
18973;SDS011;9621;48.690;9.466;2023-06-10T05:08:45;5.72;;;5.18;;
18973;SDS011;9621;48.690;9.466;2023-06-10T05:11:12;7.05;;;5.45;;
18973;SDS011;9621;48.690;9.466;2023-06-10T05:13:41;5.78;;;5.15;;
18973;SDS011;9621;48.690;9.466;2023-06-10T05:16:09;7.00;;;5.43;;
18973;SDS011;9621;48.690;9.466;2023-06-10T05:18:36;5.65;;;5.15;;
18973;SDS011;9621;48.690;9.466;2023-06-10T05:21:07;6.07;;;5.47;;
18973;SDS011;9621;48.690;9.466;2023-06-10T05:23:34;7.80;;;5.32;;
18973;SDS011;9621;48.690;9.466;2023-06-10T05:26:01;6.63;;;5.78;;
18973;SDS011;9621;48.690;9.466;2023-06-10T05:28:29;6.82;;;5.45;;
18973;SDS011;9621;48.690;9.466;2023-06-10T05:30:56;6.90;;;4.80;;
18973;SDS011;9621;48.690;9.466;2023-06-10T05:33:22;5.88;;;4.65;;
18973;SDS011;9621;48.690;9.466;2023-06-10T05:35:49;6.90;;;5.15;;
18973;SDS011;9621;48.690;9.466;2023-06-10T05:38:17;7.18;;;4.95;;
18973;SDS011;9621;48.690;9.466;2023-06-10T05:40:45;5.20;;;4.25;;
18973;SDS011;9621;48.690;9.466;2023-06-10T05:43:12;4.40;;;3.92;;
18973;SDS011;9621;48.690;9.466;2023-06-10T05:45:41;6.22;;;4.75;;
18973;SDS011;9621;48.690;9.466;2023-06-10T05:48:08;4.65;;;4.25;;
18973;SDS011;9621;48.690;9.466;2023-06-10T05:50:35;8.18;;;4.47;;
18973;SDS011;9621;48.690;9.466;2023-06-10T05:53:04;5.38;;;4.55;;
18973;SDS011;9621;48.690;9.466;2023-06-10T05:55:34;7.32;;;4.47;;
18973;SDS011;9621;48.690;9.466;2023-06-10T05:58:01;6.38;;;4.85;;
18973;SDS011;9621;48.690;9.466;2023-06-10T06:00:28;5.53;;;4.32;;
18973;SDS011;9621;48.690;9.466;2023-06-10T06:02:55;6.03;;;4.40;;
18973;SDS011;9621;48.690;9.466;2023-06-10T06:05:24;4.88;;;4.38;;
18973;SDS011;9621;48.690;9.466;2023-06-10T06:07:51;5.57;;;4.50;;
18973;SDS011;9621;48.690;9.466;2023-06-10T06:10:18;7.30;;;4.15;;
18973;SDS011;9621;48.690;9.466;2023-06-10T06:12:47;6.85;;;4.50;;
18973;SDS011;9621;48.690;9.466;2023-06-10T06:18:44;5.65;;;4.05;;
18973;SDS011;9621;48.690;9.466;2023-06-10T06:21:12;4.78;;;4.28;;
18973;SDS011;9621;48.690;9.466;2023-06-10T06:23:39;4.93;;;4.43;;
18973;SDS011;9621;48.690;9.466;2023-06-10T06:26:06;5.47;;;4.38;;
18973;SDS011;9621;48.690;9.466;2023-06-10T06:28:33;4.75;;;4.25;;
18973;SDS011;9621;48.690;9.466;2023-06-10T06:31:00;4.40;;;4.00;;
18973;SDS011;9621;48.690;9.466;2023-06-10T06:33:27;6.97;;;4.38;;
18973;SDS011;9621;48.690;9.466;2023-06-10T06:35:56;4.88;;;4.35;;
18973;SDS011;9621;48.690;9.466;2023-06-10T06:38:23;6.15;;;4.50;;
18973;SDS011;9621;48.690;9.466;2023-06-10T06:40:49;4.80;;;4.30;;
18973;SDS011;9621;48.690;9.466;2023-06-10T06:43:16;6.03;;;4.65;;
18973;SDS011;9621;48.690;9.466;2023-06-10T06:45:43;5.80;;;4.22;;
18973;SDS011;9621;48.690;9.466;2023-06-10T06:48:10;5.55;;;3.92;;
18973;SDS011;9621;48.690;9.466;2023-06-10T06:50:37;6.40;;;4.00;;
18973;SDS011;9621;48.690;9.466;2023-06-10T07:03:23;6.38;;;4.10;;
18973;SDS011;9621;48.690;9.466;2023-06-10T07:05:50;5.28;;;3.88;;
18973;SDS011;9621;48.690;9.466;2023-06-10T07:08:17;5.97;;;4.03;;
18973;SDS011;9621;48.690;9.466;2023-06-10T07:10:46;4.25;;;3.85;;
18973;SDS011;9621;48.690;9.466;2023-06-10T07:13:14;4.28;;;3.88;;
18973;SDS011;9621;48.690;9.466;2023-06-10T07:15:41;4.30;;;3.90;;
18973;SDS011;9621;48.690;9.466;2023-06-10T07:18:07;4.35;;;3.63;;
18973;SDS011;9621;48.690;9.466;2023-06-10T07:20:36;7.53;;;4.10;;
18973;SDS011;9621;48.690;9.466;2023-06-10T07:23:03;4.30;;;3.90;;
18973;SDS011;9621;48.690;9.466;2023-06-10T07:25:30;4.40;;;3.47;;
18973;SDS011;9621;48.690;9.466;2023-06-10T07:27:57;4.75;;;3.58;;
18973;SDS011;9621;48.690;9.466;2023-06-10T07:30:23;4.07;;;3.67;;
18973;SDS011;9621;48.690;9.466;2023-06-10T07:32:50;4.15;;;3.75;;
18973;SDS011;9621;48.690;9.466;2023-06-10T07:35:17;5.03;;;4.10;;
18973;SDS011;9621;48.690;9.466;2023-06-10T07:37:45;6.63;;;3.85;;
18973;SDS011;9621;48.690;9.466;2023-06-10T07:40:12;5.80;;;4.03;;
18973;SDS011;9621;48.690;9.466;2023-06-10T07:42:39;4.32;;;3.83;;
18973;SDS011;9621;48.690;9.466;2023-06-10T07:45:07;4.38;;;3.97;;
18973;SDS011;9621;48.690;9.466;2023-06-10T07:47:34;4.47;;;3.65;;
18973;SDS011;9621;48.690;9.466;2023-06-10T07:50:01;4.45;;;3.53;;
18973;SDS011;9621;48.690;9.466;2023-06-10T07:52:29;4.07;;;3.50;;
18973;SDS011;9621;48.690;9.466;2023-06-10T07:54:57;4.63;;;3.42;;
18973;SDS011;9621;48.690;9.466;2023-06-10T07:57:24;5.47;;;3.60;;
18973;SDS011;9621;48.690;9.466;2023-06-10T07:59:53;4.45;;;3.42;;
18973;SDS011;9621;48.690;9.466;2023-06-10T08:02:22;4.47;;;3.78;;
18973;SDS011;9621;48.690;9.466;2023-06-10T08:04:50;4.07;;;3.65;;
18973;SDS011;9621;48.690;9.466;2023-06-10T08:07:16;5.72;;;3.92;;
18973;SDS011;9621;48.690;9.466;2023-06-10T08:09:44;4.20;;;3.80;;
18973;SDS011;9621;48.690;9.466;2023-06-10T08:12:12;4.15;;;3.75;;
18973;SDS011;9621;48.690;9.466;2023-06-10T08:14:40;8.57;;;4.18;;
18973;SDS011;9621;48.690;9.466;2023-06-10T08:17:07;6.32;;;3.70;;
18973;SDS011;9621;48.690;9.466;2023-06-10T08:19:34;5.63;;;4.05;;
18973;SDS011;9621;48.690;9.466;2023-06-10T08:22:01;4.22;;;3.83;;
18973;SDS011;9621;48.690;9.466;2023-06-10T08:24:27;6.47;;;3.83;;
18973;SDS011;9621;48.690;9.466;2023-06-10T08:26:54;6.72;;;3.58;;
18973;SDS011;9621;48.690;9.466;2023-06-10T08:29:25;4.45;;;3.67;;
18973;SDS011;9621;48.690;9.466;2023-06-10T08:31:52;4.10;;;3.70;;
18973;SDS011;9621;48.690;9.466;2023-06-10T08:34:19;3.92;;;3.50;;
18973;SDS011;9621;48.690;9.466;2023-06-10T08:36:46;4.28;;;3.47;;
18973;SDS011;9621;48.690;9.466;2023-06-10T08:39:18;4.25;;;3.63;;
18973;SDS011;9621;48.690;9.466;2023-06-10T08:41:47;4.60;;;3.90;;
18973;SDS011;9621;48.690;9.466;2023-06-10T08:44:26;3.95;;;3.60;;
18973;SDS011;9621;48.690;9.466;2023-06-10T08:46:55;7.65;;;3.90;;
18973;SDS011;9621;48.690;9.466;2023-06-10T08:49:25;4.25;;;3.85;;
18973;SDS011;9621;48.690;9.466;2023-06-10T08:51:54;3.70;;;3.35;;
18973;SDS011;9621;48.690;9.466;2023-06-10T08:54:25;8.13;;;3.47;;
18973;SDS011;9621;48.690;9.466;2023-06-10T08:56:56;4.88;;;3.85;;
18973;SDS011;9621;48.690;9.466;2023-06-10T08:59:26;3.88;;;3.33;;
18973;SDS011;9621;48.690;9.466;2023-06-10T09:01:53;3.90;;;3.25;;
18973;SDS011;9621;48.690;9.466;2023-06-10T09:04:21;3.95;;;3.20;;
18973;SDS011;9621;48.690;9.466;2023-06-10T09:06:50;6.25;;;3.65;;
18973;SDS011;9621;48.690;9.466;2023-06-10T09:09:18;3.53;;;3.22;;
18973;SDS011;9621;48.690;9.466;2023-06-10T09:11:46;3.65;;;3.25;;
18973;SDS011;9621;48.690;9.466;2023-06-10T09:14:13;4.75;;;3.58;;
18973;SDS011;9621;48.690;9.466;2023-06-10T09:16:43;4.82;;;3.45;;
18973;SDS011;9621;48.690;9.466;2023-06-10T09:19:11;5.03;;;3.50;;
18973;SDS011;9621;48.690;9.466;2023-06-10T09:21:39;4.80;;;3.50;;
18973;SDS011;9621;48.690;9.466;2023-06-10T09:24:06;4.32;;;3.72;;
18973;SDS011;9621;48.690;9.466;2023-06-10T09:26:33;4.55;;;3.20;;
18973;SDS011;9621;48.690;9.466;2023-06-10T09:29:02;5.03;;;3.60;;
18973;SDS011;9621;48.690;9.466;2023-06-10T09:31:30;3.30;;;3.00;;
18973;SDS011;9621;48.690;9.466;2023-06-10T09:34:06;3.97;;;3.03;;
18973;SDS011;9621;48.690;9.466;2023-06-10T09:36:33;5.47;;;3.38;;
18973;SDS011;9621;48.690;9.466;2023-06-10T09:39:02;4.53;;;2.92;;
18973;SDS011;9621;48.690;9.466;2023-06-10T09:41:33;3.72;;;3.30;;
18973;SDS011;9621;48.690;9.466;2023-06-10T09:44:01;5.00;;;3.53;;
18973;SDS011;9621;48.690;9.466;2023-06-10T09:46:35;5.57;;;3.22;;
18973;SDS011;9621;48.690;9.466;2023-06-10T09:49:02;4.93;;;3.60;;
18973;SDS011;9621;48.690;9.466;2023-06-10T09:51:31;3.53;;;3.22;;
18973;SDS011;9621;48.690;9.466;2023-06-10T09:53:58;3.80;;;3.10;;
18973;SDS011;9621;48.690;9.466;2023-06-10T09:56:34;3.58;;;3.22;;
18973;SDS011;9621;48.690;9.466;2023-06-10T09:59:02;4.68;;;3.08;;
18973;SDS011;9621;48.690;9.466;2023-06-10T10:01:31;3.50;;;3.20;;
18973;SDS011;9621;48.690;9.466;2023-06-10T10:03:58;3.22;;;2.92;;
18973;SDS011;9621;48.690;9.466;2023-06-10T10:06:25;3.85;;;2.70;;
18973;SDS011;9621;48.690;9.466;2023-06-10T10:08:55;3.80;;;2.78;;
18973;SDS011;9621;48.690;9.466;2023-06-10T10:11:22;3.20;;;2.85;;
18973;SDS011;9621;48.690;9.466;2023-06-10T10:13:51;4.40;;;3.17;;
18973;SDS011;9621;48.690;9.466;2023-06-10T10:16:19;4.25;;;2.95;;
18973;SDS011;9621;48.690;9.466;2023-06-10T10:18:50;4.18;;;3.20;;
18973;SDS011;9621;48.690;9.466;2023-06-10T10:21:22;3.65;;;3.22;;
18973;SDS011;9621;48.690;9.466;2023-06-10T10:23:52;5.10;;;3.30;;
18973;SDS011;9621;48.690;9.466;2023-06-10T10:26:26;3.38;;;3.00;;
18973;SDS011;9621;48.690;9.466;2023-06-10T10:28:58;8.57;;;2.63;;
18973;SDS011;9621;48.690;9.466;2023-06-10T10:31:32;4.53;;;2.95;;
18973;SDS011;9621;48.690;9.466;2023-06-10T10:34:02;6.30;;;2.80;;
18973;SDS011;9621;48.690;9.466;2023-06-10T10:36:32;6.43;;;3.05;;
18973;SDS011;9621;48.690;9.466;2023-06-10T10:39:01;3.92;;;3.03;;
18973;SDS011;9621;48.690;9.466;2023-06-10T10:41:29;5.18;;;2.80;;
18973;SDS011;9621;48.690;9.466;2023-06-10T10:43:57;6.20;;;3.22;;
18973;SDS011;9621;48.690;9.466;2023-06-10T10:46:25;3.85;;;3.13;;
18973;SDS011;9621;48.690;9.466;2023-06-10T10:48:53;18.83;;;12.25;;
18973;SDS011;9621;48.690;9.466;2023-06-10T10:51:22;6.72;;;5.20;;
18973;SDS011;9621;48.690;9.466;2023-06-10T10:56:39;5.28;;;3.67;;
18973;SDS011;9621;48.690;9.466;2023-06-10T10:59:42;21.00;;;14.88;;
18973;SDS011;9621;48.690;9.466;2023-06-10T11:02:17;11.27;;;7.75;;
18973;SDS011;9621;48.690;9.466;2023-06-10T11:04:57;23.98;;;9.80;;
18973;SDS011;9621;48.690;9.466;2023-06-10T11:07:25;8.43;;;5.60;;
18973;SDS011;9621;48.690;9.466;2023-06-10T11:09:58;5.88;;;4.25;;
18973;SDS011;9621;48.690;9.466;2023-06-10T11:12:26;5.85;;;3.28;;
18973;SDS011;9621;48.690;9.466;2023-06-10T11:15:17;5.38;;;2.97;;
18973;SDS011;9621;48.690;9.466;2023-06-10T11:20:53;5.05;;;3.78;;
18973;SDS011;9621;48.690;9.466;2023-06-10T11:23:25;5.28;;;2.88;;
18973;SDS011;9621;48.690;9.466;2023-06-10T11:26:10;3.90;;;3.03;;
18973;SDS011;9621;48.690;9.466;2023-06-10T11:28:38;4.05;;;3.30;;
18973;SDS011;9621;48.690;9.466;2023-06-10T11:31:05;6.65;;;3.05;;
18973;SDS011;9621;48.690;9.466;2023-06-10T11:33:32;4.30;;;2.60;;
18973;SDS011;9621;48.690;9.466;2023-06-10T11:36:00;4.50;;;2.83;;
18973;SDS011;9621;48.690;9.466;2023-06-10T11:38:27;4.68;;;2.75;;
18973;SDS011;9621;48.690;9.466;2023-06-10T11:40:55;3.72;;;2.63;;
18973;SDS011;9621;48.690;9.466;2023-06-10T11:43:24;3.25;;;2.95;;
18973;SDS011;9621;48.690;9.466;2023-06-10T11:45:53;3.40;;;2.88;;
18973;SDS011;9621;48.690;9.466;2023-06-10T11:48:21;4.30;;;3.10;;
18973;SDS011;9621;48.690;9.466;2023-06-10T11:50:48;6.03;;;2.60;;
18973;SDS011;9621;48.690;9.466;2023-06-10T11:53:14;6.47;;;2.85;;
18973;SDS011;9621;48.690;9.466;2023-06-10T11:55:43;3.15;;;2.83;;
18973;SDS011;9621;48.690;9.466;2023-06-10T11:58:14;4.18;;;2.72;;
18973;SDS011;9621;48.690;9.466;2023-06-10T12:00:47;4.22;;;2.70;;
18973;SDS011;9621;48.690;9.466;2023-06-10T12:03:14;4.13;;;2.40;;
18973;SDS011;9621;48.690;9.466;2023-06-10T12:05:53;3.28;;;2.97;;
18973;SDS011;9621;48.690;9.466;2023-06-10T12:08:23;2.53;;;2.33;;
18973;SDS011;9621;48.690;9.466;2023-06-10T12:10:51;2.75;;;2.47;;
18973;SDS011;9621;48.690;9.466;2023-06-10T12:13:18;3.53;;;2.60;;
18973;SDS011;9621;48.690;9.466;2023-06-10T12:15:46;3.85;;;2.63;;
18973;SDS011;9621;48.690;9.466;2023-06-10T12:18:16;5.70;;;2.92;;
18973;SDS011;9621;48.690;9.466;2023-06-10T12:20:43;3.08;;;2.80;;
18973;SDS011;9621;48.690;9.466;2023-06-10T12:23:11;2.95;;;2.30;;
18973;SDS011;9621;48.690;9.466;2023-06-10T12:25:38;2.95;;;2.60;;
18973;SDS011;9621;48.690;9.466;2023-06-10T12:28:15;4.70;;;2.20;;
18973;SDS011;9621;48.690;9.466;2023-06-10T12:30:42;3.00;;;2.50;;
18973;SDS011;9621;48.690;9.466;2023-06-10T12:33:16;3.63;;;2.95;;
18973;SDS011;9621;48.690;9.466;2023-06-10T12:35:46;3.47;;;2.78;;
18973;SDS011;9621;48.690;9.466;2023-06-10T12:38:14;3.90;;;2.80;;
18973;SDS011;9621;48.690;9.466;2023-06-10T12:40:49;4.95;;;2.85;;
18973;SDS011;9621;48.690;9.466;2023-06-10T12:43:19;4.03;;;2.40;;
18973;SDS011;9621;48.690;9.466;2023-06-10T12:45:46;3.15;;;2.60;;
18973;SDS011;9621;48.690;9.466;2023-06-10T12:48:18;2.50;;;2.30;;
18973;SDS011;9621;48.690;9.466;2023-06-10T12:50:50;4.47;;;2.65;;
18973;SDS011;9621;48.690;9.466;2023-06-10T12:53:18;6.40;;;2.40;;
18973;SDS011;9621;48.690;9.466;2023-06-10T12:55:46;5.03;;;2.70;;
18973;SDS011;9621;48.690;9.466;2023-06-10T12:58:13;3.90;;;2.08;;
18973;SDS011;9621;48.690;9.466;2023-06-10T13:00:40;2.55;;;2.22;;
18973;SDS011;9621;48.690;9.466;2023-06-10T13:03:07;2.90;;;2.67;;
18973;SDS011;9621;48.690;9.466;2023-06-10T13:05:36;3.33;;;2.45;;
18973;SDS011;9621;48.690;9.466;2023-06-10T13:08:04;2.88;;;2.47;;
18973;SDS011;9621;48.690;9.466;2023-06-10T13:10:32;3.20;;;2.63;;
18973;SDS011;9621;48.690;9.466;2023-06-10T13:12:59;3.92;;;2.85;;
18973;SDS011;9621;48.690;9.466;2023-06-10T13:15:26;2.90;;;2.60;;
18973;SDS011;9621;48.690;9.466;2023-06-10T13:17:54;3.75;;;2.40;;
18973;SDS011;9621;48.690;9.466;2023-06-10T13:20:20;2.60;;;2.40;;
18973;SDS011;9621;48.690;9.466;2023-06-10T13:22:49;4.50;;;3.15;;
18973;SDS011;9621;48.690;9.466;2023-06-10T13:25:16;3.60;;;2.45;;
18973;SDS011;9621;48.690;9.466;2023-06-10T13:27:43;3.35;;;2.70;;
18973;SDS011;9621;48.690;9.466;2023-06-10T13:30:11;3.10;;;2.72;;
18973;SDS011;9621;48.690;9.466;2023-06-10T13:32:38;3.45;;;2.33;;
18973;SDS011;9621;48.690;9.466;2023-06-10T13:35:05;4.03;;;2.70;;
18973;SDS011;9621;48.690;9.466;2023-06-10T13:37:32;3.10;;;2.80;;
18973;SDS011;9621;48.690;9.466;2023-06-10T13:40:01;2.88;;;2.55;;
18973;SDS011;9621;48.690;9.466;2023-06-10T13:42:29;3.35;;;2.60;;
18973;SDS011;9621;48.690;9.466;2023-06-10T13:44:56;5.88;;;2.55;;
18973;SDS011;9621;48.690;9.466;2023-06-10T13:47:23;4.00;;;2.30;;
18973;SDS011;9621;48.690;9.466;2023-06-10T13:49:50;2.60;;;2.40;;
18973;SDS011;9621;48.690;9.466;2023-06-10T13:52:17;3.88;;;2.88;;
18973;SDS011;9621;48.690;9.466;2023-06-10T13:54:45;3.30;;;2.58;;
18973;SDS011;9621;48.690;9.466;2023-06-10T13:57:13;2.80;;;2.50;;
18973;SDS011;9621;48.690;9.466;2023-06-10T13:59:40;3.25;;;2.70;;
18973;SDS011;9621;48.690;9.466;2023-06-10T14:02:08;4.00;;;2.72;;
18973;SDS011;9621;48.690;9.466;2023-06-10T14:04:35;4.53;;;2.90;;
18973;SDS011;9621;48.690;9.466;2023-06-10T14:07:02;3.10;;;2.80;;
18973;SDS011;9621;48.690;9.466;2023-06-10T14:09:29;2.88;;;2.65;;
18973;SDS011;9621;48.690;9.466;2023-06-10T14:11:56;3.22;;;2.83;;
18973;SDS011;9621;48.690;9.466;2023-06-10T14:14:25;3.13;;;2.88;;
18973;SDS011;9621;48.690;9.466;2023-06-10T14:16:52;2.80;;;2.60;;
18973;SDS011;9621;48.690;9.466;2023-06-10T14:19:19;2.78;;;2.42;;
18973;SDS011;9621;48.690;9.466;2023-06-10T14:21:46;2.92;;;2.70;;
18973;SDS011;9621;48.690;9.466;2023-06-10T14:24:14;3.10;;;2.53;;
18973;SDS011;9621;48.690;9.466;2023-06-10T14:26:41;5.20;;;2.88;;
18973;SDS011;9621;48.690;9.466;2023-06-10T14:29:08;3.38;;;2.72;;
18973;SDS011;9621;48.690;9.466;2023-06-10T14:31:36;3.45;;;2.47;;
18973;SDS011;9621;48.690;9.466;2023-06-10T14:34:03;2.60;;;2.40;;
18973;SDS011;9621;48.690;9.466;2023-06-10T14:36:32;4.75;;;2.78;;
18973;SDS011;9621;48.690;9.466;2023-06-10T14:39:00;4.20;;;2.80;;
18973;SDS011;9621;48.690;9.466;2023-06-10T14:41:27;3.10;;;2.80;;
18973;SDS011;9621;48.690;9.466;2023-06-10T14:43:53;3.15;;;2.85;;
18973;SDS011;9621;48.690;9.466;2023-06-10T14:46:22;2.95;;;2.63;;
18973;SDS011;9621;48.690;9.466;2023-06-10T14:48:50;3.25;;;2.83;;
18973;SDS011;9621;48.690;9.466;2023-06-10T14:51:17;2.78;;;2.58;;
18973;SDS011;9621;48.690;9.466;2023-06-10T14:53:45;3.53;;;2.67;;
18973;SDS011;9621;48.690;9.466;2023-06-10T14:56:12;2.95;;;2.70;;
18973;SDS011;9621;48.690;9.466;2023-06-10T14:58:39;2.83;;;2.20;;
18973;SDS011;9621;48.690;9.466;2023-06-10T15:01:07;3.13;;;2.80;;
18973;SDS011;9621;48.690;9.466;2023-06-10T15:03:34;2.60;;;2.40;;
18973;SDS011;9621;48.690;9.466;2023-06-10T15:06:02;2.92;;;2.63;;
18973;SDS011;9621;48.690;9.466;2023-06-10T15:08:29;2.90;;;2.30;;
18973;SDS011;9621;48.690;9.466;2023-06-10T15:10:56;2.70;;;2.50;;
18973;SDS011;9621;48.690;9.466;2023-06-10T15:13:23;2.70;;;2.50;;
18973;SDS011;9621;48.690;9.466;2023-06-10T15:15:50;3.25;;;2.60;;
18973;SDS011;9621;48.690;9.466;2023-06-10T15:18:17;3.90;;;2.35;;
18973;SDS011;9621;48.690;9.466;2023-06-10T15:20:45;3.58;;;2.47;;
18973;SDS011;9621;48.690;9.466;2023-06-10T15:23:13;2.63;;;2.42;;